sensor_id;sensor_type;location;lat;lon;timestamp;temperature;humidity
3478;DHT22;37937;61.490;23.506;2022-12-07T00:01:31;-1.00;99.90
3478;DHT22;37937;61.490;23.506;2022-12-07T00:03:57;-1.00;99.90
3478;DHT22;37937;61.490;23.506;2022-12-07T00:06:29;-1.00;99.90
3478;DHT22;37937;61.490;23.506;2022-12-07T00:08:55;-1.10;99.90
3478;DHT22;37937;61.490;23.506;2022-12-07T00:11:21;-1.10;99.90
3478;DHT22;37937;61.490;23.506;2022-12-07T00:13:51;-1.10;99.90
3478;DHT22;37937;61.490;23.506;2022-12-07T00:16:17;-1.10;99.90
3478;DHT22;37937;61.490;23.506;2022-12-07T00:18:43;-1.20;99.90
3478;DHT22;37937;61.490;23.506;2022-12-07T00:21:10;-1.20;99.90
3478;DHT22;37937;61.490;23.506;2022-12-07T00:23:36;-1.20;99.90
3478;DHT22;37937;61.490;23.506;2022-12-07T00:26:06;-1.20;99.90
3478;DHT22;37937;61.490;23.506;2022-12-07T00:28:32;-1.20;99.90
3478;DHT22;37937;61.490;23.506;2022-12-07T00:31:02;-1.20;99.90
3478;DHT22;37937;61.490;23.506;2022-12-07T00:33:33;-1.20;99.90
3478;DHT22;37937;61.490;23.506;2022-12-07T00:36:00;-1.20;99.90
3478;DHT22;37937;61.490;23.506;2022-12-07T00:38:30;-1.20;99.90
3478;DHT22;37937;61.490;23.506;2022-12-07T00:40:57;-1.20;99.90
3478;DHT22;37937;61.490;23.506;2022-12-07T00:43:22;-1.20;99.90
3478;DHT22;37937;61.490;23.506;2022-12-07T00:45:49;-1.20;99.90
3478;DHT22;37937;61.490;23.506;2022-12-07T00:48:16;-1.20;99.90
3478;DHT22;37937;61.490;23.506;2022-12-07T00:50:42;-1.20;99.90
3478;DHT22;37937;61.490;23.506;2022-12-07T00:53:08;-1.30;99.90
3478;DHT22;37937;61.490;23.506;2022-12-07T00:55:34;-1.50;99.90
3478;DHT22;37937;61.490;23.506;2022-12-07T00:58:00;-1.40;99.90
3478;DHT22;37937;61.490;23.506;2022-12-07T01:00:25;-1.40;99.90
3478;DHT22;37937;61.490;23.506;2022-12-07T01:02:51;-1.40;99.90
3478;DHT22;37937;61.490;23.506;2022-12-07T01:05:17;-1.40;99.90
3478;DHT22;37937;61.490;23.506;2022-12-07T01:07:43;-1.50;99.90
3478;DHT22;37937;61.490;23.506;2022-12-07T01:10:08;-1.50;99.90
3478;DHT22;37937;61.490;23.506;2022-12-07T01:12:34;-1.50;99.90
3478;DHT22;37937;61.490;23.506;2022-12-07T01:15:00;-1.50;99.90
3478;DHT22;37937;61.490;23.506;2022-12-07T01:17:25;-1.50;99.90
3478;DHT22;37937;61.490;23.506;2022-12-07T01:19:51;-1.40;99.90
3478;DHT22;37937;61.490;23.506;2022-12-07T01:22:16;-1.40;99.90
3478;DHT22;37937;61.490;23.506;2022-12-07T01:24:42;-1.50;99.90
3478;DHT22;37937;61.490;23.506;2022-12-07T01:27:08;-1.50;99.90
3478;DHT22;37937;61.490;23.506;2022-12-07T01:29:33;-1.70;99.90
3478;DHT22;37937;61.490;23.506;2022-12-07T01:31:59;-1.60;99.90
3478;DHT22;37937;61.490;23.506;2022-12-07T01:34:24;-1.60;99.90
3478;DHT22;37937;61.490;23.506;2022-12-07T01:36:50;-1.60;99.90
3478;DHT22;37937;61.490;23.506;2022-12-07T01:39:16;-1.50;99.90
3478;DHT22;37937;61.490;23.506;2022-12-07T01:41:41;-1.50;99.90
3478;DHT22;37937;61.490;23.506;2022-12-07T01:46:40;-1.50;99.90
3478;DHT22;37937;61.490;23.506;2022-12-07T01:49:08;-1.50;99.90
3478;DHT22;37937;61.490;23.506;2022-12-07T01:51:34;-1.50;99.90
3478;DHT22;37937;61.490;23.506;2022-12-07T01:54:00;-1.60;99.90
3478;DHT22;37937;61.490;23.506;2022-12-07T01:56:26;-1.60;99.90
3478;DHT22;37937;61.490;23.506;2022-12-07T01:58:53;-1.60;99.90
3478;DHT22;37937;61.490;23.506;2022-12-07T02:01:20;-1.70;99.90
3478;DHT22;37937;61.490;23.506;2022-12-07T02:03:46;-1.70;99.90
3478;DHT22;37937;61.490;23.506;2022-12-07T02:06:13;-1.70;99.90
3478;DHT22;37937;61.490;23.506;2022-12-07T02:08:41;-1.60;99.90
3478;DHT22;37937;61.490;23.506;2022-12-07T02:11:06;-1.60;99.90
3478;DHT22;37937;61.490;23.506;2022-12-07T02:13:34;-1.60;99.90
3478;DHT22;37937;61.490;23.506;2022-12-07T02:21:28;-1.60;99.90
3478;DHT22;37937;61.490;23.506;2022-12-07T02:31:49;-1.70;99.90
3478;DHT22;37937;61.490;23.506;2022-12-07T02:34:21;-1.70;99.90
3478;DHT22;37937;61.490;23.506;2022-12-07T02:36:52;-1.70;99.90
3478;DHT22;37937;61.490;23.506;2022-12-07T02:39:22;-1.70;99.90
3478;DHT22;37937;61.490;23.506;2022-12-07T02:41:55;-1.70;99.90
3478;DHT22;37937;61.490;23.506;2022-12-07T02:44:23;-1.70;99.90
3478;DHT22;37937;61.490;23.506;2022-12-07T02:46:52;-1.70;99.90
3478;DHT22;37937;61.490;23.506;2022-12-07T02:49:21;-1.80;99.90
3478;DHT22;37937;61.490;23.506;2022-12-07T02:51:47;-1.80;99.90
3478;DHT22;37937;61.490;23.506;2022-12-07T02:54:17;-1.90;99.90
3478;DHT22;37937;61.490;23.506;2022-12-07T03:01:43;-1.80;99.90
3478;DHT22;37937;61.490;23.506;2022-12-07T03:04:47;-1.80;99.90
3478;DHT22;37937;61.490;23.506;2022-12-07T03:07:18;-1.80;99.90
3478;DHT22;37937;61.490;23.506;2022-12-07T03:09:52;-1.80;99.90
3478;DHT22;37937;61.490;23.506;2022-12-07T03:12:20;-1.80;99.90
3478;DHT22;37937;61.490;23.506;2022-12-07T03:14:49;-1.80;99.90
3478;DHT22;37937;61.490;23.506;2022-12-07T03:17:20;-1.70;99.90
3478;DHT22;37937;61.490;23.506;2022-12-07T03:19:47;-1.70;99.90
3478;DHT22;37937;61.490;23.506;2022-12-07T03:22:14;-1.70;99.90
3478;DHT22;37937;61.490;23.506;2022-12-07T03:24:45;-1.70;99.90
3478;DHT22;37937;61.490;23.506;2022-12-07T03:27:18;-1.80;99.90
3478;DHT22;37937;61.490;23.506;2022-12-07T03:29:47;-1.80;99.90
3478;DHT22;37937;61.490;23.506;2022-12-07T03:32:25;-1.80;99.90
3478;DHT22;37937;61.490;23.506;2022-12-07T03:34:53;-1.80;99.90
3478;DHT22;37937;61.490;23.506;2022-12-07T03:37:26;-1.80;99.90
3478;DHT22;37937;61.490;23.506;2022-12-07T03:42:26;-1.80;99.90
3478;DHT22;37937;61.490;23.506;2022-12-07T03:44:52;-1.90;99.90
3478;DHT22;37937;61.490;23.506;2022-12-07T03:47:25;-2.00;99.90
3478;DHT22;37937;61.490;23.506;2022-12-07T03:49:53;-2.00;99.90
3478;DHT22;37937;61.490;23.506;2022-12-07T03:55:00;-2.10;99.90
3478;DHT22;37937;61.490;23.506;2022-12-07T03:57:29;-2.10;99.90
3478;DHT22;37937;61.490;23.506;2022-12-07T03:59:56;-2.10;99.90
3478;DHT22;37937;61.490;23.506;2022-12-07T04:02:23;-2.00;99.90
3478;DHT22;37937;61.490;23.506;2022-12-07T04:04:50;-2.00;99.90
3478;DHT22;37937;61.490;23.506;2022-12-07T04:07:15;-2.00;99.90
3478;DHT22;37937;61.490;23.506;2022-12-07T04:09:41;-2.10;99.90
3478;DHT22;37937;61.490;23.506;2022-12-07T04:12:07;-2.10;99.90
3478;DHT22;37937;61.490;23.506;2022-12-07T04:14:33;-2.20;99.90
3478;DHT22;37937;61.490;23.506;2022-12-07T04:17:00;-2.20;99.90
3478;DHT22;37937;61.490;23.506;2022-12-07T04:19:27;-2.20;99.90
3478;DHT22;37937;61.490;23.506;2022-12-07T04:21:53;-2.30;99.90
3478;DHT22;37937;61.490;23.506;2022-12-07T04:24:19;-2.30;99.90
3478;DHT22;37937;61.490;23.506;2022-12-07T04:26:45;-2.30;99.90
3478;DHT22;37937;61.490;23.506;2022-12-07T04:29:12;-2.30;99.90
3478;DHT22;37937;61.490;23.506;2022-12-07T04:31:38;-2.30;99.90
3478;DHT22;37937;61.490;23.506;2022-12-07T04:34:03;-2.30;99.90
3478;DHT22;37937;61.490;23.506;2022-12-07T04:36:31;-2.20;99.90
3478;DHT22;37937;61.490;23.506;2022-12-07T04:38:56;-2.20;99.90
3478;DHT22;37937;61.490;23.506;2022-12-07T04:41:22;-2.30;99.90
3478;DHT22;37937;61.490;23.506;2022-12-07T04:43:55;-2.30;99.90
3478;DHT22;37937;61.490;23.506;2022-12-07T04:46:22;-2.30;99.90
3478;DHT22;37937;61.490;23.506;2022-12-07T04:48:48;-2.20;99.90
3478;DHT22;37937;61.490;23.506;2022-12-07T04:51:15;-2.20;99.90
3478;DHT22;37937;61.490;23.506;2022-12-07T04:53:41;-2.20;99.90
3478;DHT22;37937;61.490;23.506;2022-12-07T04:56:07;-2.30;99.90
3478;DHT22;37937;61.490;23.506;2022-12-07T04:58:32;-2.30;99.90
3478;DHT22;37937;61.490;23.506;2022-12-07T05:00:58;-2.30;99.90
3478;DHT22;37937;61.490;23.506;2022-12-07T05:03:24;-2.20;99.90
3478;DHT22;37937;61.490;23.506;2022-12-07T05:05:49;-2.20;99.90
3478;DHT22;37937;61.490;23.506;2022-12-07T05:08:15;-2.30;99.90
3478;DHT22;37937;61.490;23.506;2022-12-07T05:10:40;-2.30;99.90
3478;DHT22;37937;61.490;23.506;2022-12-07T05:13:06;-2.20;99.90
3478;DHT22;37937;61.490;23.506;2022-12-07T05:15:31;-2.20;99.90
3478;DHT22;37937;61.490;23.506;2022-12-07T05:17:57;-2.20;99.90
3478;DHT22;37937;61.490;23.506;2022-12-07T05:20:23;-2.20;99.90
3478;DHT22;37937;61.490;23.506;2022-12-07T05:22:48;-2.40;99.90
3478;DHT22;37937;61.490;23.506;2022-12-07T05:25:14;-2.40;99.90
3478;DHT22;37937;61.490;23.506;2022-12-07T05:27:39;-2.40;99.90
3478;DHT22;37937;61.490;23.506;2022-12-07T05:30:05;-2.40;99.90
3478;DHT22;37937;61.490;23.506;2022-12-07T05:32:31;-2.40;99.90
3478;DHT22;37937;61.490;23.506;2022-12-07T05:34:56;-2.40;99.90
3478;DHT22;37937;61.490;23.506;2022-12-07T05:37:22;-2.40;99.90
3478;DHT22;37937;61.490;23.506;2022-12-07T05:39:48;-2.40;99.90
3478;DHT22;37937;61.490;23.506;2022-12-07T05:42:13;-2.40;99.90
3478;DHT22;37937;61.490;23.506;2022-12-07T05:44:40;-2.40;99.90
3478;DHT22;37937;61.490;23.506;2022-12-07T05:47:05;-2.60;99.90
3478;DHT22;37937;61.490;23.506;2022-12-07T05:49:31;-2.60;99.90
3478;DHT22;37937;61.490;23.506;2022-12-07T05:51:57;-2.60;99.90
3478;DHT22;37937;61.490;23.506;2022-12-07T05:54:22;-2.50;99.90
3478;DHT22;37937;61.490;23.506;2022-12-07T05:56:48;-2.50;99.90
3478;DHT22;37937;61.490;23.506;2022-12-07T05:59:13;-2.50;99.90
3478;DHT22;37937;61.490;23.506;2022-12-07T06:01:55;-2.60;99.90
3478;DHT22;37937;61.490;23.506;2022-12-07T06:04:22;-2.60;99.90
3478;DHT22;37937;61.490;23.506;2022-12-07T06:06:47;-2.50;99.90
3478;DHT22;37937;61.490;23.506;2022-12-07T06:09:13;-2.50;99.90
3478;DHT22;37937;61.490;23.506;2022-12-07T06:11:39;-2.50;99.90
3478;DHT22;37937;61.490;23.506;2022-12-07T06:14:23;-2.60;99.90
3478;DHT22;37937;61.490;23.506;2022-12-07T06:16:49;-2.70;99.90
3478;DHT22;37937;61.490;23.506;2022-12-07T06:19:15;-2.70;99.90
3478;DHT22;37937;61.490;23.506;2022-12-07T06:21:41;-2.70;99.90
3478;DHT22;37937;61.490;23.506;2022-12-07T06:24:07;-2.70;99.90
3478;DHT22;37937;61.490;23.506;2022-12-07T06:26:32;-2.70;99.90
3478;DHT22;37937;61.490;23.506;2022-12-07T06:28:58;-2.70;99.90
3478;DHT22;37937;61.490;23.506;2022-12-07T06:31:24;-2.70;99.90
3478;DHT22;37937;61.490;23.506;2022-12-07T06:33:49;-2.70;99.90
3478;DHT22;37937;61.490;23.506;2022-12-07T06:36:15;-2.80;99.90
3478;DHT22;37937;61.490;23.506;2022-12-07T06:38:41;-2.80;99.90
3478;DHT22;37937;61.490;23.506;2022-12-07T06:41:06;-2.80;99.90
3478;DHT22;37937;61.490;23.506;2022-12-07T06:43:32;-2.90;99.90
3478;DHT22;37937;61.490;23.506;2022-12-07T06:45:58;-2.80;99.90
3478;DHT22;37937;61.490;23.506;2022-12-07T06:48:23;-2.80;99.90
3478;DHT22;37937;61.490;23.506;2022-12-07T06:50:49;-2.80;99.90
3478;DHT22;37937;61.490;23.506;2022-12-07T06:53:15;-2.80;99.90
3478;DHT22;37937;61.490;23.506;2022-12-07T06:55:40;-2.80;99.90
3478;DHT22;37937;61.490;23.506;2022-12-07T06:58:06;-2.80;99.90
3478;DHT22;37937;61.490;23.506;2022-12-07T07:00:32;-2.90;99.90
3478;DHT22;37937;61.490;23.506;2022-12-07T07:03:00;-2.90;99.90
3478;DHT22;37937;61.490;23.506;2022-12-07T07:05:25;-2.80;99.90
3478;DHT22;37937;61.490;23.506;2022-12-07T07:07:51;-2.90;99.90
3478;DHT22;37937;61.490;23.506;2022-12-07T07:10:16;-2.80;99.90
3478;DHT22;37937;61.490;23.506;2022-12-07T07:12:42;-2.90;99.90
3478;DHT22;37937;61.490;23.506;2022-12-07T07:15:08;-3.00;99.90
3478;DHT22;37937;61.490;23.506;2022-12-07T07:17:34;-2.90;99.90
3478;DHT22;37937;61.490;23.506;2022-12-07T07:20:00;-2.90;99.90
3478;DHT22;37937;61.490;23.506;2022-12-07T07:22:25;-3.00;99.90
3478;DHT22;37937;61.490;23.506;2022-12-07T07:24:51;-2.90;99.90
3478;DHT22;37937;61.490;23.506;2022-12-07T07:27:17;-2.90;99.90
3478;DHT22;37937;61.490;23.506;2022-12-07T07:29:42;-2.80;99.90
3478;DHT22;37937;61.490;23.506;2022-12-07T07:32:08;-3.00;99.90
3478;DHT22;37937;61.490;23.506;2022-12-07T07:34:33;-3.00;99.90
3478;DHT22;37937;61.490;23.506;2022-12-07T07:36:59;-3.40;99.90
3478;DHT22;37937;61.490;23.506;2022-12-07T07:39:25;-3.40;99.90
3478;DHT22;37937;61.490;23.506;2022-12-07T07:41:50;-3.30;99.90
3478;DHT22;37937;61.490;23.506;2022-12-07T07:44:16;-3.20;99.90
3478;DHT22;37937;61.490;23.506;2022-12-07T07:46:42;-3.30;99.90
3478;DHT22;37937;61.490;23.506;2022-12-07T07:49:08;-3.30;99.90
3478;DHT22;37937;61.490;23.506;2022-12-07T07:51:35;-3.30;99.90
3478;DHT22;37937;61.490;23.506;2022-12-07T07:54:00;-3.30;99.90
3478;DHT22;37937;61.490;23.506;2022-12-07T07:56:26;-3.20;99.90
3478;DHT22;37937;61.490;23.506;2022-12-07T07:58:52;-3.20;99.90
3478;DHT22;37937;61.490;23.506;2022-12-07T08:01:17;-3.10;99.90
3478;DHT22;37937;61.490;23.506;2022-12-07T08:03:45;-3.10;99.90
3478;DHT22;37937;61.490;23.506;2022-12-07T08:06:11;-3.10;99.90
3478;DHT22;37937;61.490;23.506;2022-12-07T08:08:37;-3.10;99.90
3478;DHT22;37937;61.490;23.506;2022-12-07T08:11:06;-3.00;99.90
3478;DHT22;37937;61.490;23.506;2022-12-07T08:13:32;-3.00;99.90
3478;DHT22;37937;61.490;23.506;2022-12-07T08:15:57;-2.90;99.90
3478;DHT22;37937;61.490;23.506;2022-12-07T08:18:23;-2.90;99.90
3478;DHT22;37937;61.490;23.506;2022-12-07T08:20:49;-3.00;99.90
3478;DHT22;37937;61.490;23.506;2022-12-07T08:23:14;-2.90;99.90
3478;DHT22;37937;61.490;23.506;2022-12-07T08:25:40;-2.80;99.90
3478;DHT22;37937;61.490;23.506;2022-12-07T08:28:05;-2.80;99.90
3478;DHT22;37937;61.490;23.506;2022-12-07T08:30:31;-2.70;99.90
3478;DHT22;37937;61.490;23.506;2022-12-07T08:32:59;-2.70;99.90
3478;DHT22;37937;61.490;23.506;2022-12-07T08:35:25;-2.60;99.90
3478;DHT22;37937;61.490;23.506;2022-12-07T08:37:51;-2.60;99.90
3478;DHT22;37937;61.490;23.506;2022-12-07T08:40:17;-2.70;99.90
3478;DHT22;37937;61.490;23.506;2022-12-07T08:42:50;-2.70;99.90
3478;DHT22;37937;61.490;23.506;2022-12-07T08:45:17;-2.70;99.90
3478;DHT22;37937;61.490;23.506;2022-12-07T08:50:18;-2.80;99.90
3478;DHT22;37937;61.490;23.506;2022-12-07T08:52:43;-2.80;99.90
3478;DHT22;37937;61.490;23.506;2022-12-07T08:55:10;-2.80;99.90
3478;DHT22;37937;61.490;23.506;2022-12-07T08:57:36;-2.90;99.90
3478;DHT22;37937;61.490;23.506;2022-12-07T09:00:03;-2.90;99.90
3478;DHT22;37937;61.490;23.506;2022-12-07T09:02:30;-3.00;99.90
3478;DHT22;37937;61.490;23.506;2022-12-07T09:04:55;-2.80;99.90
3478;DHT22;37937;61.490;23.506;2022-12-07T09:07:21;-2.80;99.90
3478;DHT22;37937;61.490;23.506;2022-12-07T09:09:47;-2.80;99.90
3478;DHT22;37937;61.490;23.506;2022-12-07T09:12:12;-2.80;99.90
3478;DHT22;37937;61.490;23.506;2022-12-07T09:14:38;-2.80;99.90
3478;DHT22;37937;61.490;23.506;2022-12-07T09:17:07;-2.70;99.90
3478;DHT22;37937;61.490;23.506;2022-12-07T09:19:32;-2.70;99.90
3478;DHT22;37937;61.490;23.506;2022-12-07T09:21:58;-2.80;99.90
3478;DHT22;37937;61.490;23.506;2022-12-07T09:24:23;-2.80;99.90
3478;DHT22;37937;61.490;23.506;2022-12-07T09:26:49;-2.80;99.90
3478;DHT22;37937;61.490;23.506;2022-12-07T09:29:15;-2.80;99.90
3478;DHT22;37937;61.490;23.506;2022-12-07T09:31:40;-2.70;99.90
3478;DHT22;37937;61.490;23.506;2022-12-07T09:34:06;-2.70;99.90
3478;DHT22;37937;61.490;23.506;2022-12-07T09:36:32;-2.70;99.90
3478;DHT22;37937;61.490;23.506;2022-12-07T09:38:58;-2.70;99.90
3478;DHT22;37937;61.490;23.506;2022-12-07T09:41:24;-2.70;99.90
3478;DHT22;37937;61.490;23.506;2022-12-07T09:43:50;-2.70;99.90
3478;DHT22;37937;61.490;23.506;2022-12-07T09:46:16;-2.70;99.90
3478;DHT22;37937;61.490;23.506;2022-12-07T09:48:44;-2.60;99.90
3478;DHT22;37937;61.490;23.506;2022-12-07T09:51:20;-2.70;99.90
3478;DHT22;37937;61.490;23.506;2022-12-07T09:53:46;-2.70;99.90
3478;DHT22;37937;61.490;23.506;2022-12-07T09:56:15;-2.60;99.90
3478;DHT22;37937;61.490;23.506;2022-12-07T09:58:41;-2.60;99.90
3478;DHT22;37937;61.490;23.506;2022-12-07T10:03:34;-2.60;99.90
3478;DHT22;37937;61.490;23.506;2022-12-07T10:06:00;-2.70;99.90
3478;DHT22;37937;61.490;23.506;2022-12-07T10:08:26;-2.80;99.90
3478;DHT22;37937;61.490;23.506;2022-12-07T10:10:52;-2.70;99.90
3478;DHT22;37937;61.490;23.506;2022-12-07T10:13:19;-2.80;99.90
3478;DHT22;37937;61.490;23.506;2022-12-07T10:21:03;-2.70;99.90
3478;DHT22;37937;61.490;23.506;2022-12-07T10:23:29;-2.60;99.90
3478;DHT22;37937;61.490;23.506;2022-12-07T10:25:55;-2.60;99.90
3478;DHT22;37937;61.490;23.506;2022-12-07T10:28:21;-2.50;99.90
3478;DHT22;37937;61.490;23.506;2022-12-07T10:31:03;-2.50;99.90
3478;DHT22;37937;61.490;23.506;2022-12-07T10:33:54;-2.50;99.90
3478;DHT22;37937;61.490;23.506;2022-12-07T10:36:25;-2.40;99.90
3478;DHT22;37937;61.490;23.506;2022-12-07T10:39:13;-2.30;99.90
3478;DHT22;37937;61.490;23.506;2022-12-07T10:41:58;-2.30;99.90
3478;DHT22;37937;61.490;23.506;2022-12-07T10:44:33;-2.40;99.90
3478;DHT22;37937;61.490;23.506;2022-12-07T10:52:01;-2.60;99.90
3478;DHT22;37937;61.490;23.506;2022-12-07T10:54:39;-2.50;99.90
3478;DHT22;37937;61.490;23.506;2022-12-07T10:59:45;-2.30;99.90
3478;DHT22;37937;61.490;23.506;2022-12-07T11:02:36;-2.20;99.90
3478;DHT22;37937;61.490;23.506;2022-12-07T11:05:04;-2.20;99.90
3478;DHT22;37937;61.490;23.506;2022-12-07T11:17:36;-2.20;99.90
3478;DHT22;37937;61.490;23.506;2022-12-07T11:20:51;-2.30;99.90
3478;DHT22;37937;61.490;23.506;2022-12-07T11:30:50;-2.40;99.90
3478;DHT22;37937;61.490;23.506;2022-12-07T11:33:21;-2.40;99.90
3478;DHT22;37937;61.490;23.506;2022-12-07T11:36:16;-2.40;99.90
3478;DHT22;37937;61.490;23.506;2022-12-07T11:38:44;-2.30;99.90
3478;DHT22;37937;61.490;23.506;2022-12-07T11:41:11;-2.30;99.90
3478;DHT22;37937;61.490;23.506;2022-12-07T11:43:41;-2.20;99.90
3478;DHT22;37937;61.490;23.506;2022-12-07T11:46:11;-2.30;99.90
3478;DHT22;37937;61.490;23.506;2022-12-07T11:48:38;-2.30;99.90
3478;DHT22;37937;61.490;23.506;2022-12-07T11:51:06;-2.30;99.90
3478;DHT22;37937;61.490;23.506;2022-12-07T11:53:45;-2.30;99.90
3478;DHT22;37937;61.490;23.506;2022-12-07T11:56:12;-2.30;99.90
3478;DHT22;37937;61.490;23.506;2022-12-07T11:58:44;-2.30;99.90
3478;DHT22;37937;61.490;23.506;2022-12-07T12:04:05;-2.50;99.90
3478;DHT22;37937;61.490;23.506;2022-12-07T12:06:32;-2.50;99.90
3478;DHT22;37937;61.490;23.506;2022-12-07T12:09:11;-2.60;99.90
3478;DHT22;37937;61.490;23.506;2022-12-07T12:22:18;-2.60;99.90
3478;DHT22;37937;61.490;23.506;2022-12-07T12:24:46;-2.60;99.90
3478;DHT22;37937;61.490;23.506;2022-12-07T12:27:35;-2.60;99.90
3478;DHT22;37937;61.490;23.506;2022-12-07T12:30:02;-2.70;99.90
3478;DHT22;37937;61.490;23.506;2022-12-07T12:32:38;-2.70;99.90
3478;DHT22;37937;61.490;23.506;2022-12-07T12:37:45;-2.70;99.90
3478;DHT22;37937;61.490;23.506;2022-12-07T12:42:58;-2.70;99.90
3478;DHT22;37937;61.490;23.506;2022-12-07T12:47:55;-2.70;99.90
3478;DHT22;37937;61.490;23.506;2022-12-07T12:50:25;-2.60;99.90
3478;DHT22;37937;61.490;23.506;2022-12-07T12:52:52;-2.70;99.90
3478;DHT22;37937;61.490;23.506;2022-12-07T12:55:19;-2.70;99.90
3478;DHT22;37937;61.490;23.506;2022-12-07T12:57:47;-2.70;99.90
3478;DHT22;37937;61.490;23.506;2022-12-07T13:00:21;-2.70;99.90
3478;DHT22;37937;61.490;23.506;2022-12-07T13:02:50;-2.80;99.90
3478;DHT22;37937;61.490;23.506;2022-12-07T13:05:18;-2.80;99.90
3478;DHT22;37937;61.490;23.506;2022-12-07T13:13:02;-2.80;99.90
3478;DHT22;37937;61.490;23.506;2022-12-07T13:18:01;-2.80;99.90
3478;DHT22;37937;61.490;23.506;2022-12-07T13:20:40;-2.70;99.90
3478;DHT22;37937;61.490;23.506;2022-12-07T13:23:08;-2.70;99.90
3478;DHT22;37937;61.490;23.506;2022-12-07T13:25:43;-2.80;99.90
3478;DHT22;37937;61.490;23.506;2022-12-07T13:28:14;-2.70;99.90
3478;DHT22;37937;61.490;23.506;2022-12-07T13:31:03;-2.70;99.90
3478;DHT22;37937;61.490;23.506;2022-12-07T13:33:27;-2.70;99.90
3478;DHT22;37937;61.490;23.506;2022-12-07T13:35:53;-2.60;99.90
3478;DHT22;37937;61.490;23.506;2022-12-07T13:43:45;-2.60;99.90
3478;DHT22;37937;61.490;23.506;2022-12-07T13:46:11;-2.60;99.90
3478;DHT22;37937;61.490;23.506;2022-12-07T13:51:14;-2.70;99.90
3478;DHT22;37937;61.490;23.506;2022-12-07T13:53:45;-2.70;99.90
3478;DHT22;37937;61.490;23.506;2022-12-07T13:56:12;-2.70;99.90
3478;DHT22;37937;61.490;23.506;2022-12-07T13:58:38;-2.70;99.90
3478;DHT22;37937;61.490;23.506;2022-12-07T14:01:04;-2.80;99.90
3478;DHT22;37937;61.490;23.506;2022-12-07T14:03:32;-2.80;99.90
3478;DHT22;37937;61.490;23.506;2022-12-07T14:06:13;-2.80;99.90
3478;DHT22;37937;61.490;23.506;2022-12-07T14:08:39;-2.70;99.90
3478;DHT22;37937;61.490;23.506;2022-12-07T14:11:05;-2.70;99.90
3478;DHT22;37937;61.490;23.506;2022-12-07T14:13:35;-2.70;99.90
3478;DHT22;37937;61.490;23.506;2022-12-07T14:16:02;-2.70;99.90
3478;DHT22;37937;61.490;23.506;2022-12-07T14:18:49;-2.70;99.90
3478;DHT22;37937;61.490;23.506;2022-12-07T14:21:15;-2.80;99.90
3478;DHT22;37937;61.490;23.506;2022-12-07T14:23:42;-2.80;99.90
3478;DHT22;37937;61.490;23.506;2022-12-07T14:26:29;-2.80;99.90
3478;DHT22;37937;61.490;23.506;2022-12-07T14:28:59;-2.70;99.90
3478;DHT22;37937;61.490;23.506;2022-12-07T14:31:39;-2.70;99.90
3478;DHT22;37937;61.490;23.506;2022-12-07T14:34:05;-2.70;99.90
3478;DHT22;37937;61.490;23.506;2022-12-07T14:36:30;-2.70;99.90
3478;DHT22;37937;61.490;23.506;2022-12-07T14:38:56;-2.70;99.90
3478;DHT22;37937;61.490;23.506;2022-12-07T14:41:23;-2.80;99.90
3478;DHT22;37937;61.490;23.506;2022-12-07T14:44:13;-2.80;99.90
3478;DHT22;37937;61.490;23.506;2022-12-07T14:46:39;-2.80;99.90
3478;DHT22;37937;61.490;23.506;2022-12-07T14:49:04;-2.80;99.90
3478;DHT22;37937;61.490;23.506;2022-12-07T14:51:30;-2.80;99.90
3478;DHT22;37937;61.490;23.506;2022-12-07T14:53:56;-2.90;99.90
3478;DHT22;37937;61.490;23.506;2022-12-07T14:56:22;-2.90;99.90
3478;DHT22;37937;61.490;23.506;2022-12-07T14:58:47;-2.80;99.90
3478;DHT22;37937;61.490;23.506;2022-12-07T15:01:13;-2.80;99.90
3478;DHT22;37937;61.490;23.506;2022-12-07T15:03:39;-2.80;99.90
3478;DHT22;37937;61.490;23.506;2022-12-07T15:06:05;-2.80;99.90
3478;DHT22;37937;61.490;23.506;2022-12-07T15:08:31;-2.80;99.90
3478;DHT22;37937;61.490;23.506;2022-12-07T15:10:57;-2.80;99.90
3478;DHT22;37937;61.490;23.506;2022-12-07T15:13:22;-2.90;99.90
3478;DHT22;37937;61.490;23.506;2022-12-07T15:16:10;-2.80;99.90
3478;DHT22;37937;61.490;23.506;2022-12-07T15:18:36;-2.90;99.90
3478;DHT22;37937;61.490;23.506;2022-12-07T15:21:02;-2.90;99.90
3478;DHT22;37937;61.490;23.506;2022-12-07T15:23:28;-2.90;99.90
3478;DHT22;37937;61.490;23.506;2022-12-07T15:25:53;-2.90;99.90
3478;DHT22;37937;61.490;23.506;2022-12-07T15:28:19;-2.90;99.90
3478;DHT22;37937;61.490;23.506;2022-12-07T15:30:44;-2.90;99.90
3478;DHT22;37937;61.490;23.506;2022-12-07T15:33:11;-2.90;99.90
3478;DHT22;37937;61.490;23.506;2022-12-07T15:35:40;-2.90;99.90
3478;DHT22;37937;61.490;23.506;2022-12-07T15:38:06;-2.80;99.90
3478;DHT22;37937;61.490;23.506;2022-12-07T15:40:31;-2.80;99.90
3478;DHT22;37937;61.490;23.506;2022-12-07T15:42:57;-2.80;99.90
3478;DHT22;37937;61.490;23.506;2022-12-07T15:45:23;-2.80;99.90
3478;DHT22;37937;61.490;23.506;2022-12-07T15:47:48;-2.80;99.90
3478;DHT22;37937;61.490;23.506;2022-12-07T15:50:15;-2.80;99.90
3478;DHT22;37937;61.490;23.506;2022-12-07T15:52:41;-2.80;99.90
3478;DHT22;37937;61.490;23.506;2022-12-07T15:55:07;-2.80;99.90
3478;DHT22;37937;61.490;23.506;2022-12-07T15:57:35;-2.80;99.90
3478;DHT22;37937;61.490;23.506;2022-12-07T16:00:03;-2.80;99.90
3478;DHT22;37937;61.490;23.506;2022-12-07T16:02:28;-2.90;99.90
3478;DHT22;37937;61.490;23.506;2022-12-07T16:04:54;-2.90;99.90
3478;DHT22;37937;61.490;23.506;2022-12-07T16:07:19;-2.80;99.90
3478;DHT22;37937;61.490;23.506;2022-12-07T16:09:45;-2.80;99.90
3478;DHT22;37937;61.490;23.506;2022-12-07T16:12:11;-2.80;99.90
3478;DHT22;37937;61.490;23.506;2022-12-07T16:14:37;-2.80;99.90
3478;DHT22;37937;61.490;23.506;2022-12-07T16:17:03;-2.80;99.90
3478;DHT22;37937;61.490;23.506;2022-12-07T16:19:30;-2.70;99.90
3478;DHT22;37937;61.490;23.506;2022-12-07T16:21:56;-2.80;99.90
3478;DHT22;37937;61.490;23.506;2022-12-07T16:24:22;-2.80;99.90
3478;DHT22;37937;61.490;23.506;2022-12-07T16:26:47;-2.80;99.90
3478;DHT22;37937;61.490;23.506;2022-12-07T16:29:13;-2.80;99.90
3478;DHT22;37937;61.490;23.506;2022-12-07T16:31:39;-2.80;99.90
3478;DHT22;37937;61.490;23.506;2022-12-07T16:34:05;-2.80;99.90
3478;DHT22;37937;61.490;23.506;2022-12-07T16:36:31;-2.80;99.90
3478;DHT22;37937;61.490;23.506;2022-12-07T16:38:58;-2.80;99.90
3478;DHT22;37937;61.490;23.506;2022-12-07T16:41:23;-2.80;99.90
3478;DHT22;37937;61.490;23.506;2022-12-07T16:43:49;-2.70;99.90
3478;DHT22;37937;61.490;23.506;2022-12-07T16:46:14;-2.70;99.90
3478;DHT22;37937;61.490;23.506;2022-12-07T16:48:41;-2.70;99.90
3478;DHT22;37937;61.490;23.506;2022-12-07T16:51:07;-2.70;99.90
3478;DHT22;37937;61.490;23.506;2022-12-07T16:53:37;-2.70;99.90
3478;DHT22;37937;61.490;23.506;2022-12-07T16:56:02;-2.70;99.90
3478;DHT22;37937;61.490;23.506;2022-12-07T16:58:28;-2.70;99.90
3478;DHT22;37937;61.490;23.506;2022-12-07T17:00:54;-2.70;99.90
3478;DHT22;37937;61.490;23.506;2022-12-07T17:03:20;-2.70;99.90
3478;DHT22;37937;61.490;23.506;2022-12-07T17:05:45;-2.70;99.90
3478;DHT22;37937;61.490;23.506;2022-12-07T17:08:11;-2.70;99.90
3478;DHT22;37937;61.490;23.506;2022-12-07T17:10:39;-2.60;99.90
3478;DHT22;37937;61.490;23.506;2022-12-07T17:13:05;-2.70;99.90